Terminal Aerodrome Forecast
Issued by NWS Riverton, WY

Home | Current Version | Previous Version | Text Only | Print | Product List | Glossary On
Versions: 1 2 3 4 5 6 7 8 9 10 11 12 13 14 15 16
000
FTUS45 KRIW 041500 AAA
TAFRIW
TAF AMD
KRIW 041527Z 0415/0512 VRB06KT P6SM SCT024 BKN100
      TEMPO 0415/0416 BKN024 BKN100
     FM041630 VRB05KT P6SM SCT070
     FM050000 07010KT P6SM SCT100 BKN250=

USA.gov is the U.S. government's official web portal to all federal, state and local government web resources and services.